Time;durP1;ratioP1;P1;durP2;ratioP2;P2;SDS_P1;SDS_P2;PMS_P1;PMS_P2;Temp;Humidity;BMP_temperature;BMP_pressure;BME280_temperature;BME280_humidity;BME280_pressure;Samples;Min_cycle;Max_cycle;Signal;HPM_P1;HPM_P2
2023/06/14 00:01:40;;;;;;;6.10;3.75;;;20.20;81.70;;;;;;5021801;28;20117;-67
2023/06/14 00:04:08;;;;;;;6.38;3.28;;;20.10;82.00;;;;;;5020941;28;20059;-67
2023/06/14 00:06:34;;;;;;;4.35;3.13;;;20.10;81.40;;;;;;5020760;28;20022;-67
2023/06/14 00:08:59;;;;;;;9.90;3.53;;;20.20;81.70;;;;;;5021683;28;20032;-67
2023/06/14 00:11:26;;;;;;;8.30;3.78;;;20.20;80.80;;;;;;5020422;28;20125;-67
2023/06/14 00:13:52;;;;;;;10.18;3.58;;;20.20;80.80;;;;;;5021337;28;20105;-67
2023/06/14 00:16:24;;;;;;;5.30;3.08;;;20.20;81.30;;;;;;5074891;28;20387;-67
2023/06/14 00:18:52;;;;;;;7.07;3.65;;;20.10;82.00;;;;;;5073502;28;20025;-67
2023/06/14 00:21:19;;;;;;;5.60;3.35;;;20.10;82.10;;;;;;5073374;28;20021;-67
2023/06/14 00:23:45;;;;;;;7.28;3.95;;;20.00;82.90;;;;;;5074049;28;20021;-67
2023/06/14 00:26:11;;;;;;;6.97;4.03;;;19.90;83.20;;;;;;5073347;28;20029;-67
2023/06/14 00:28:36;;;;;;;13.55;4.28;;;19.80;83.60;;;;;;5073083;28;20038;-67
2023/06/14 00:31:02;;;;;;;5.20;3.55;;;19.80;83.60;;;;;;5074104;28;20063;-67
2023/06/14 00:33:27;;;;;;;11.15;4.07;;;19.70;84.20;;;;;;5073091;28;20025;-67
2023/06/14 00:35:53;;;;;;;6.38;4.13;;;19.70;84.50;;;;;;5073972;28;20020;-66
2023/06/14 00:38:20;;;;;;;5.88;3.40;;;19.70;84.60;;;;;;5073897;28;20077;-66
2023/06/14 00:40:45;;;;;;;10.55;4.03;;;19.60;84.60;;;;;;5072944;28;20021;-66
2023/06/14 00:43:11;;;;;;;9.80;4.80;;;19.60;84.50;;;;;;5073858;28;20017;-66
2023/06/14 00:45:36;;;;;;;6.28;3.72;;;19.50;85.00;;;;;;5072777;28;20024;-66
2023/06/14 00:48:03;;;;;;;6.18;3.28;;;19.50;85.00;;;;;;5073162;28;20032;-66
2023/06/14 00:50:29;;;;;;;8.73;4.07;;;19.50;84.60;;;;;;5072871;28;20075;-66
2023/06/14 00:52:56;;;;;;;4.25;3.30;;;19.50;85.10;;;;;;5072767;28;20056;-66
2023/06/14 00:55:21;;;;;;;6.00;3.33;;;19.60;85.10;;;;;;5073480;28;20032;-66
2023/06/14 00:57:47;;;;;;;5.43;3.70;;;19.50;84.90;;;;;;5072551;28;20020;-66
2023/06/14 01:00:14;;;;;;;4.82;3.45;;;19.50;84.60;;;;;;5072607;28;20020;-66
2023/06/14 01:02:39;;;;;;;5.43;4.05;;;19.30;84.90;;;;;;5072650;28;20025;-66
2023/06/14 01:05:09;;;;;;;5.93;3.50;;;19.30;85.40;;;;;;5072726;28;20029;-66
2023/06/14 01:07:49;;;;;;;7.10;3.28;;;19.30;85.70;;;;;;5072499;28;20074;-66
2023/06/14 01:10:36;;;;;;;12.23;3.92;;;19.30;85.80;;;;;;5072536;28;20078;-66
2023/06/14 01:13:12;;;;;;;7.90;3.92;;;19.10;86.00;;;;;;5072442;28;20029;-66
2023/06/14 01:15:39;;;;;;;5.70;3.70;;;19.10;86.30;;;;;;5072199;28;20036;-66
2023/06/14 01:18:05;;;;;;;5.45;3.55;;;19.00;86.80;;;;;;5072265;28;20029;-66
2023/06/14 01:20:33;;;;;;;10.15;3.90;;;18.90;86.90;;;;;;5072990;28;20021;-66
2023/06/14 01:22:59;;;;;;;7.70;3.20;;;18.90;87.70;;;;;;5072236;28;20048;-66
2023/06/14 01:25:26;;;;;;;5.35;3.47;;;18.90;87.20;;;;;;5072004;28;20036;-66
2023/06/14 01:27:55;;;;;;;4.25;3.13;;;19.00;87.00;;;;;;5048755;22;20069;-68
2023/06/14 01:30:23;;;;;;;11.07;3.58;;;19.00;87.10;;;;;;4999401;28;20030;-68
2023/06/14 01:32:50;;;;;;;7.68;3.75;;;18.80;87.00;;;;;;5000067;28;20057;-68
2023/06/14 01:35:16;;;;;;;8.45;3.33;;;18.60;88.00;;;;;;4999681;28;20027;-68
2023/06/14 01:37:42;;;;;;;7.22;3.17;;;18.50;88.00;;;;;;5000199;28;20026;-68
2023/06/14 01:40:10;;;;;;;5.93;3.22;;;18.60;88.20;;;;;;4999179;28;20029;-68
2023/06/14 01:42:38;;;;;;;5.57;3.40;;;18.70;87.90;;;;;;4999235;28;20028;-68
2023/06/14 01:45:05;;;;;;;5.05;2.97;;;18.60;88.40;;;;;;5000205;28;20030;-68
2023/06/14 01:47:32;;;;;;;3.65;2.92;;;18.40;88.70;;;;;;4999119;28;20048;-68
2023/06/14 01:49:58;;;;;;;8.43;3.17;;;18.40;88.90;;;;;;4999185;28;20084;-68
2023/06/14 01:52:24;;;;;;;8.02;3.60;;;18.40;88.90;;;;;;4999359;28;20026;-68
2023/06/14 01:54:50;;;;;;;8.60;3.47;;;18.40;89.00;;;;;;4999383;28;20034;-68
2023/06/14 01:57:15;;;;;;;13.52;3.72;;;18.40;88.90;;;;;;4999061;28;20026;-68
2023/06/14 01:59:41;;;;;;;9.40;3.53;;;18.20;89.20;;;;;;4999290;28;20084;-68
2023/06/14 02:02:07;;;;;;;8.18;3.17;;;18.20;89.70;;;;;;4998931;28;20022;-68
2023/06/14 02:04:33;;;;;;;12.52;4.65;;;18.00;90.00;;;;;;4998885;28;20033;-68
2023/06/14 02:06:59;;;;;;;7.53;3.67;;;18.00;90.20;;;;;;4999077;28;20064;-68
2023/06/14 02:09:24;;;;;;;4.97;3.25;;;18.10;90.20;;;;;;4998571;28;20055;-68
2023/06/14 02:11:50;;;;;;;5.25;2.65;;;18.00;90.40;;;;;;5000231;28;20078;-68
2023/06/14 02:14:16;;;;;;;7.07;3.58;;;18.20;90.60;;;;;;4999472;28;20030;-68
2023/06/14 02:16:48;;;;;;;6.72;3.60;;;18.20;90.40;;;;;;4999154;28;20026;-68
2023/06/14 02:19:18;;;;;;;4.80;3.25;;;18.10;90.30;;;;;;4998601;28;20026;-68
2023/06/14 02:21:44;;;;;;;6.70;3.10;;;18.20;90.50;;;;;;5000097;28;20026;-68
2023/06/14 02:24:10;;;;;;;11.32;3.65;;;18.00;90.60;;;;;;4999532;28;20030;-68
2023/06/14 02:26:37;;;;;;;9.95;4.07;;;18.10;90.70;;;;;;4998537;28;20018;-68
2023/06/14 02:29:05;;;;;;;5.40;3.42;;;18.30;90.60;;;;;;4999250;28;20077;-68
2023/06/14 02:31:31;;;;;;;13.50;3.75;;;18.30;91.10;;;;;;4999247;28;20057;-68
2023/06/14 02:33:56;;;;;;;6.68;3.40;;;18.30;90.60;;;;;;4998227;28;20125;-68
2023/06/14 02:36:22;;;;;;;4.75;3.38;;;18.30;90.60;;;;;;4999114;28;20053;-68
2023/06/14 02:38:47;;;;;;;4.10;3.20;;;18.20;90.40;;;;;;4996998;28;20033;-68
2023/06/14 02:41:13;;;;;;;5.30;3.47;;;18.10;90.80;;;;;;4998182;28;20026;-68
2023/06/14 02:43:39;;;;;;;7.93;3.35;;;18.20;91.20;;;;;;4997999;28;20022;-68
2023/06/14 02:46:04;;;;;;;6.03;3.40;;;18.20;90.60;;;;;;4998893;28;20101;-68
2023/06/14 02:48:30;;;;;;;5.22;3.83;;;18.20;91.20;;;;;;4998048;28;20037;-68
2023/06/14 02:50:56;;;;;;;3.47;2.92;;;18.20;91.00;;;;;;4999096;28;20085;-68
2023/06/14 02:53:22;;;;;;;6.22;3.00;;;18.10;90.70;;;;;;4998336;28;20076;-68
2023/06/14 02:55:48;;;;;;;7.43;3.42;;;18.10;91.00;;;;;;4998510;28;20058;-68
2023/06/14 02:58:14;;;;;;;5.53;3.60;;;18.10;91.20;;;;;;4998085;28;20026;-68
2023/06/14 03:00:40;;;;;;;4.80;3.42;;;18.10;91.00;;;;;;4998872;28;20068;-68
2023/06/14 03:03:13;;;;;;;7.43;3.13;;;18.00;91.30;;;;;;4997649;28;20015;-68
2023/06/14 03:05:47;;;;;;;7.47;3.60;;;18.00;91.10;;;;;;4999141;28;20026;-68
2023/06/14 03:08:16;;;;;;;4.53;3.13;;;18.10;91.10;;;;;;4998905;28;20026;-68
2023/06/14 03:10:43;;;;;;;5.78;2.95;;;18.00;91.30;;;;;;4998728;28;20045;-68
2023/06/14 03:13:10;;;;;;;8.15;3.05;;;17.90;91.40;;;;;;4998614;28;20027;-68
2023/06/14 03:15:36;;;;;;;7.38;3.55;;;17.80;91.80;;;;;;4998472;28;20025;-68
2023/06/14 03:18:02;;;;;;;16.05;4.38;;;17.70;92.10;;;;;;4998296;28;20019;-68
2023/06/14 03:20:29;;;;;;;5.63;3.20;;;17.60;92.20;;;;;;4997675;28;20030;-68
2023/06/14 03:22:55;;;;;;;11.23;3.33;;;17.50;92.30;;;;;;4998428;28;20023;-68
2023/06/14 03:25:21;;;;;;;6.28;3.05;;;17.50;92.40;;;;;;4998093;28;20026;-68
2023/06/14 03:27:47;;;;;;;5.28;3.03;;;17.50;92.70;;;;;;4997921;28;20030;-68
2023/06/14 03:30:13;;;;;;;6.45;3.20;;;17.50;92.90;;;;;;4997239;28;20033;-68
2023/06/14 03:32:39;;;;;;;7.55;3.60;;;17.50;93.00;;;;;;4997489;28;20104;-68
2023/06/14 03:35:05;;;;;;;8.80;3.25;;;17.50;92.90;;;;;;4997395;28;20026;-68
2023/06/14 03:37:31;;;;;;;7.60;3.53;;;17.40;93.10;;;;;;4997150;28;20030;-68
2023/06/14 03:39:56;;;;;;;4.15;2.90;;;17.50;93.60;;;;;;4997311;28;20046;-68
2023/06/14 03:42:22;;;;;;;7.03;3.00;;;17.50;93.20;;;;;;4997960;28;20113;-68
2023/06/14 03:44:47;;;;;;;9.07;3.13;;;17.40;93.40;;;;;;4997294;28;20061;-68
2023/06/14 03:47:13;;;;;;;7.10;3.17;;;17.50;93.40;;;;;;4997939;28;20031;-69
2023/06/14 03:49:39;;;;;;;4.43;3.20;;;17.40;93.60;;;;;;4996707;28;20098;-68
2023/06/14 03:52:05;;;;;;;11.63;3.58;;;17.40;93.70;;;;;;4996942;28;20023;-68
2023/06/14 03:54:32;;;;;;;6.32;3.42;;;17.30;93.90;;;;;;4997160;28;20027;-68
2023/06/14 03:56:58;;;;;;;7.30;3.15;;;17.40;94.20;;;;;;4997153;28;20027;-68
2023/06/14 03:59:24;;;;;;;9.85;3.25;;;17.40;94.20;;;;;;4997935;28;20222;-68
2023/06/14 04:01:49;;;;;;;5.80;3.30;;;17.40;94.10;;;;;;4997029;28;20022;-68
2023/06/14 04:04:18;;;;;;;5.20;3.40;;;17.40;94.30;;;;;;4996756;28;20045;-68
2023/06/14 04:06:44;;;;;;;5.82;3.55;;;17.30;94.60;;;;;;4996763;28;20028;-68
2023/06/14 04:09:09;;;;;;;7.30;3.05;;;17.30;95.00;;;;;;4997567;28;20098;-68
2023/06/14 04:11:35;;;;;;;7.47;3.13;;;17.40;94.90;;;;;;4997136;28;20026;-68
2023/06/14 04:14:02;;;;;;;7.60;3.25;;;17.60;94.70;;;;;;4997504;28;20027;-68
2023/06/14 04:16:27;;;;;;;10.75;3.60;;;17.60;94.60;;;;;;4997892;28;20034;-68
2023/06/14 04:18:55;;;;;;;6.18;3.13;;;17.60;94.80;;;;;;4997849;28;20030;-68
2023/06/14 04:21:20;;;;;;;4.70;2.80;;;17.50;95.20;;;;;;4996814;28;20019;-68
2023/06/14 04:23:46;;;;;;;13.45;3.88;;;17.60;95.10;;;;;;4996547;28;20076;-68
2023/06/14 04:26:12;;;;;;;5.25;3.30;;;17.70;95.10;;;;;;4996468;28;20030;-68
2023/06/14 04:28:40;;;;;;;4.93;2.83;;;17.70;95.00;;;;;;4996870;28;20046;-68
2023/06/14 04:31:08;;;;;;;7.38;3.03;;;17.70;95.50;;;;;;4996533;28;20038;-68
2023/06/14 04:33:42;;;;;;;8.38;3.55;;;17.70;95.60;;;;;;4997460;28;20050;-68
2023/06/14 04:36:09;;;;;;;5.65;2.85;;;17.70;96.00;;;;;;4996428;28;20109;-68
2023/06/14 04:38:35;;;;;;;6.53;3.10;;;17.70;96.20;;;;;;4996541;28;20029;-68
2023/06/14 04:41:01;;;;;;;6.85;2.88;;;17.70;96.60;;;;;;4997584;28;20018;-68
2023/06/14 04:43:28;;;;;;;7.65;2.97;;;17.80;96.20;;;;;;4997580;28;20041;-68
2023/06/14 04:45:56;;;;;;;5.50;3.20;;;17.80;96.20;;;;;;4996914;28;20026;-68
2023/06/14 04:48:22;;;;;;;9.07;3.22;;;17.90;96.20;;;;;;4996359;28;20030;-68
2023/06/14 04:50:47;;;;;;;12.07;3.35;;;17.90;96.00;;;;;;4996660;28;20027;-68
2023/06/14 04:53:13;;;;;;;5.35;2.80;;;17.90;96.00;;;;;;4996543;28;20022;-68
2023/06/14 04:55:44;;;;;;;6.22;3.13;;;17.80;96.20;;;;;;4997217;28;20026;-68
2023/06/14 04:58:12;;;;;;;4.03;3.13;;;17.80;96.20;;;;;;4996752;28;20058;-68
2023/06/14 05:00:38;;;;;;;7.85;2.70;;;17.90;96.20;;;;;;4997072;28;20023;-68
2023/06/14 05:03:05;;;;;;;3.38;2.42;;;17.80;96.60;;;;;;4999583;28;20085;-68
2023/06/14 05:05:31;;;;;;;8.00;3.30;;;17.80;96.40;;;;;;5001199;28;20064;-68
2023/06/14 05:07:57;;;;;;;4.78;3.15;;;17.80;97.00;;;;;;5000127;28;20037;-68
2023/06/14 05:10:24;;;;;;;7.15;2.92;;;17.80;96.70;;;;;;5000474;28;20113;-68
2023/06/14 05:12:50;;;;;;;5.15;2.80;;;18.00;97.00;;;;;;4999899;28;20026;-68
2023/06/14 05:15:15;;;;;;;10.10;3.75;;;18.00;97.20;;;;;;4999659;28;20031;-68
2023/06/14 05:17:42;;;;;;;10.48;3.67;;;18.00;97.20;;;;;;5000381;28;20029;-68
2023/06/14 05:20:10;;;;;;;4.50;3.00;;;18.20;97.20;;;;;;4999652;28;20034;-68
2023/06/14 05:22:35;;;;;;;4.82;3.20;;;18.10;97.20;;;;;;5000072;28;20026;-68
2023/06/14 05:25:01;;;;;;;8.68;3.17;;;18.20;97.50;;;;;;5000805;28;20046;-68
2023/06/14 05:27:27;;;;;;;7.88;3.22;;;18.30;97.40;;;;;;4999624;28;20034;-68
2023/06/14 05:29:55;;;;;;;10.95;3.20;;;18.30;97.50;;;;;;5000512;28;20037;-68
2023/06/14 05:32:21;;;;;;;8.00;3.45;;;18.40;97.80;;;;;;4999448;28;20032;-68
2023/06/14 05:34:46;;;;;;;6.45;3.08;;;18.00;97.80;;;;;;5000366;28;20030;-68
2023/06/14 05:37:13;;;;;;;5.30;2.72;;;18.20;98.00;;;;;;4999647;28;20018;-68
2023/06/14 05:39:38;;;;;;;5.78;3.03;;;18.20;97.80;;;;;;5000435;28;20030;-68
2023/06/14 05:42:04;;;;;;;7.70;2.67;;;18.10;98.20;;;;;;4999269;28;20018;-68
2023/06/14 05:44:29;;;;;;;5.32;3.25;;;18.00;97.80;;;;;;5000180;28;20110;-68
2023/06/14 05:46:55;;;;;;;5.10;2.60;;;17.90;98.50;;;;;;4999543;28;20030;-68
2023/06/14 05:49:21;;;;;;;9.10;3.00;;;17.90;98.90;;;;;;4999352;28;20113;-68
2023/06/14 05:51:46;;;;;;;6.68;2.65;;;18.00;98.90;;;;;;5000122;28;20026;-68
2023/06/14 05:54:12;;;;;;;7.45;2.85;;;18.10;98.50;;;;;;4999087;28;20030;-68
2023/06/14 05:56:37;;;;;;;4.15;2.70;;;18.20;98.90;;;;;;4998951;28;20021;-68
2023/06/14 05:59:03;;;;;;;7.03;2.75;;;18.40;98.80;;;;;;5000735;28;20022;-68
2023/06/14 06:01:28;;;;;;;8.15;2.70;;;18.20;98.90;;;;;;4999411;28;20033;-68
2023/06/14 06:03:54;;;;;;;5.32;2.67;;;18.10;99.10;;;;;;4999213;28;20022;-67
2023/06/14 06:06:19;;;;;;;7.97;3.33;;;18.30;99.40;;;;;;4999019;28;20030;-68
2023/06/14 06:08:45;;;;;;;3.25;2.65;;;18.40;99.20;;;;;;4998718;28;20180;-68
2023/06/14 06:11:10;;;;;;;4.68;2.70;;;18.50;98.90;;;;;;4999541;28;20084;-65
2023/06/14 06:13:36;;;;;;;4.63;2.58;;;18.50;98.60;;;;;;4999709;28;20031;-66
2023/06/14 06:16:03;;;;;;;5.30;2.10;;;18.30;98.80;;;;;;4998928;28;20120;-66
2023/06/14 06:18:28;;;;;;;8.77;2.78;;;18.50;99.50;;;;;;4998507;28;20027;-67
2023/06/14 06:20:55;;;;;;;5.55;2.47;;;18.60;99.50;;;;;;4998906;28;20026;-67
2023/06/14 06:23:21;;;;;;;11.25;3.08;;;18.70;99.10;;;;;;4998554;28;20030;-67
2023/06/14 06:25:46;;;;;;;3.55;2.40;;;18.60;98.90;;;;;;4999100;28;20028;-67
2023/06/14 06:28:12;;;;;;;8.00;2.75;;;18.60;99.20;;;;;;5000081;28;20034;-67
2023/06/14 06:30:38;;;;;;;8.15;2.30;;;18.60;99.50;;;;;;4999236;28;20118;-67
2023/06/14 06:33:03;;;;;;;7.75;2.40;;;18.70;99.10;;;;;;4998711;28;20098;-67
2023/06/14 06:35:30;;;;;;;5.00;2.30;;;18.70;99.10;;;;;;4998371;28;20093;-67
2023/06/14 06:37:56;;;;;;;7.68;2.55;;;19.00;99.20;;;;;;4999026;28;20023;-67
2023/06/14 06:40:21;;;;;;;5.00;2.38;;;19.20;99.10;;;;;;4998057;28;20121;-67
2023/06/14 06:42:47;;;;;;;3.42;2.15;;;19.10;98.90;;;;;;4998138;28;20165;-67
2023/06/14 06:45:12;;;;;;;3.97;2.38;;;19.20;98.40;;;;;;4998083;28;20034;-67
2023/06/14 06:47:38;;;;;;;3.97;2.28;;;19.40;98.40;;;;;;4998953;28;20168;-67
2023/06/14 06:50:04;;;;;;;8.40;2.25;;;19.40;98.10;;;;;;4997954;28;20033;-67
2023/06/14 06:52:29;;;;;;;4.50;2.17;;;19.30;98.20;;;;;;4997819;28;20034;-67
2023/06/14 06:54:55;;;;;;;4.07;2.10;;;19.40;97.70;;;;;;4998665;28;20037;-67
2023/06/14 06:57:24;;;;;;;5.18;2.13;;;19.30;97.90;;;;;;4998583;28;20043;-67
2023/06/14 06:59:50;;;;;;;2.90;1.60;;;19.30;98.50;;;;;;4997802;28;20112;-67
2023/06/14 07:02:16;;;;;;;4.30;2.22;;;19.40;98.80;;;;;;4998870;28;20065;-67
2023/06/14 07:04:42;;;;;;;5.82;1.70;;;19.50;97.70;;;;;;4997941;28;20073;-67
2023/06/14 07:07:09;;;;;;;5.60;1.60;;;19.40;97.50;;;;;;4997997;28;20035;-68
2023/06/14 07:09:35;;;;;;;2.95;2.10;;;19.40;97.10;;;;;;4998291;28;20030;-69
2023/06/14 07:12:00;;;;;;;5.18;1.70;;;19.50;97.20;;;;;;4998821;28;20121;-69
2023/06/14 07:14:30;;;;;;;9.45;1.77;;;19.50;96.80;;;;;;4997482;28;20094;-69
2023/06/14 07:16:55;;;;;;;2.70;2.05;;;19.50;96.90;;;;;;4998902;28;20023;-68
2023/06/14 07:19:21;;;;;;;1.70;1.60;;;19.60;96.90;;;;;;4998621;28;20029;-70
2023/06/14 07:21:47;;;;;;;5.15;1.70;;;19.70;96.90;;;;;;4997759;28;20030;-70
2023/06/14 07:24:13;;;;;;;4.05;1.73;;;19.70;97.40;;;;;;4996920;28;20014;-70
2023/06/14 07:26:39;;;;;;;7.25;2.05;;;19.70;96.90;;;;;;4997179;28;20056;-71
2023/06/14 07:29:04;;;;;;;3.35;1.65;;;19.80;97.60;;;;;;5028512;22;20136;-69
2023/06/14 07:31:30;;;;;;;4.90;1.80;;;19.80;98.00;;;;;;5016651;28;20013;-70
2023/06/14 07:33:56;;;;;;;7.72;1.67;;;19.80;95.90;;;;;;5017608;28;20077;-68
2023/06/14 07:36:22;;;;;;;3.72;1.77;;;19.80;95.60;;;;;;5017199;28;20033;-68
2023/06/14 07:38:47;;;;;;;4.75;1.75;;;19.90;96.00;;;;;;5016675;28;20026;-68
2023/06/14 07:41:13;;;;;;;6.53;2.53;;;20.00;96.50;;;;;;5016656;28;20033;-68
2023/06/14 07:43:38;;;;;;;4.38;1.40;;;19.90;95.50;;;;;;5016839;28;20018;-68
2023/06/14 07:46:05;;;;;;;5.10;1.65;;;20.00;95.70;;;;;;5016934;28;20033;-68
2023/06/14 07:48:30;;;;;;;4.85;1.65;;;20.20;95.10;;;;;;5016764;28;20029;-68
2023/06/14 07:50:56;;;;;;;2.65;1.75;;;20.20;94.70;;;;;;5016720;28;20026;-68
2023/06/14 07:53:21;;;;;;;2.13;1.55;;;20.40;95.40;;;;;;5016510;28;20026;-68
2023/06/14 07:55:48;;;;;;;5.40;1.67;;;20.40;95.10;;;;;;5016464;28;20022;-68
2023/06/14 07:58:14;;;;;;;3.65;1.73;;;20.50;94.90;;;;;;5016950;28;20180;-68
2023/06/14 08:00:39;;;;;;;2.63;1.38;;;20.50;94.40;;;;;;5016568;28;20086;-68
2023/06/14 08:03:04;;;;;;;2.33;1.60;;;20.50;94.10;;;;;;5016331;28;20022;-67
2023/06/14 08:05:31;;;;;;;3.75;1.50;;;20.60;93.00;;;;;;5017007;28;20034;-68
2023/06/14 08:07:56;;;;;;;5.13;1.63;;;20.60;93.00;;;;;;5016293;28;20153;-69
2023/06/14 08:10:22;;;;;;;2.10;1.52;;;20.70;93.70;;;;;;5016390;28;20042;-70
2023/06/14 08:12:50;;;;;;;4.57;1.70;;;20.80;93.50;;;;;;5016069;28;20036;-70
2023/06/14 08:15:17;;;;;;;3.67;1.55;;;20.70;94.10;;;;;;5017216;28;20022;-70
2023/06/14 08:17:43;;;;;;;2.92;1.88;;;20.90;92.60;;;;;;5016164;28;20049;-70
2023/06/14 08:20:10;;;;;;;1.90;1.30;;;20.80;93.20;;;;;;5016380;28;20025;-70
2023/06/14 08:22:37;;;;;;;2.70;1.80;;;20.90;92.20;;;;;;5016087;28;20053;-70
2023/06/14 08:25:03;;;;;;;3.65;1.67;;;20.90;92.50;;;;;;5016476;28;20092;-70
2023/06/14 08:27:29;;;;;;;4.32;1.80;;;21.00;92.50;;;;;;5016601;28;20080;-70
2023/06/14 08:29:55;;;;;;;6.15;2.05;;;21.10;92.60;;;;;;5017185;28;20022;-70
2023/06/14 08:32:21;;;;;;;3.28;1.73;;;21.10;92.40;;;;;;5016864;28;20105;-70
2023/06/14 08:34:47;;;;;;;2.72;1.52;;;21.00;91.80;;;;;;5016327;28;20094;-70
2023/06/14 08:37:13;;;;;;;3.63;1.73;;;20.90;92.20;;;;;;5018054;28;20044;-70
2023/06/14 08:39:39;;;;;;;4.32;1.85;;;21.00;92.50;;;;;;5020796;28;20014;-70
2023/06/14 08:42:07;;;;;;;3.38;1.70;;;21.10;92.40;;;;;;5020172;28;20026;-70
2023/06/14 08:44:33;;;;;;;7.70;2.10;;;21.30;91.80;;;;;;5020856;28;20022;-70
2023/06/14 08:47:06;;;;;;;4.22;2.00;;;21.40;91.40;;;;;;5020043;28;20045;-70
2023/06/14 08:49:32;;;;;;;2.80;1.50;;;21.60;91.60;;;;;;5019821;28;20028;-70
2023/06/14 08:51:59;;;;;;;2.80;1.90;;;21.70;91.60;;;;;;5019781;28;20025;-70
2023/06/14 08:54:30;;;;;;;3.22;1.77;;;21.20;91.30;;;;;;5020516;28;20014;-70
2023/06/14 08:56:57;;;;;;;3.67;1.80;;;21.20;91.60;;;;;;5019926;28;20021;-70
2023/06/14 08:59:26;;;;;;;4.93;2.08;;;21.20;91.70;;;;;;5021003;28;20261;-70
2023/06/14 09:01:52;;;;;;;3.50;2.25;;;21.30;92.20;;;;;;5019569;28;20029;-70
2023/06/14 09:04:19;;;;;;;5.40;2.40;;;21.30;91.70;;;;;;5020602;28;20029;-70
2023/06/14 09:06:45;;;;;;;9.93;2.30;;;20.80;91.80;;;;;;5020415;28;20029;-70
2023/06/14 09:09:12;;;;;;;3.35;2.03;;;20.70;92.60;;;;;;5019495;28;20076;-70
2023/06/14 09:11:37;;;;;;;3.25;1.90;;;20.80;92.40;;;;;;5020402;28;20030;-70
2023/06/14 09:14:03;;;;;;;12.77;2.33;;;21.20;91.30;;;;;;5019467;28;20025;-70
2023/06/14 09:16:28;;;;;;;3.75;2.33;;;21.50;91.20;;;;;;5019421;28;20018;-70
2023/06/14 09:18:54;;;;;;;4.75;2.05;;;21.50;90.90;;;;;;5019200;28;20030;-70
2023/06/14 09:21:21;;;;;;;5.55;2.20;;;21.50;91.50;;;;;;5019258;28;20022;-70
2023/06/14 09:23:47;;;;;;;5.07;2.25;;;21.80;91.20;;;;;;5020041;28;20072;-70
2023/06/14 09:26:15;;;;;;;4.50;2.22;;;21.90;90.60;;;;;;5019530;28;20029;-70
2023/06/14 09:28:43;;;;;;;3.45;2.08;;;21.80;90.30;;;;;;5019218;28;20034;-70
2023/06/14 09:31:09;;;;;;;2.97;1.88;;;21.90;89.70;;;;;;5019069;28;20032;-70
2023/06/14 09:33:35;;;;;;;2.67;1.85;;;22.20;90.00;;;;;;5019090;28;20057;-70
2023/06/14 09:36:01;;;;;;;4.10;2.20;;;22.40;89.30;;;;;;5018960;28;20061;-70
2023/06/14 09:38:26;;;;;;;9.68;1.90;;;22.70;87.80;;;;;;5019893;28;20030;-70
2023/06/14 09:40:52;;;;;;;2.40;1.85;;;22.90;86.30;;;;;;5018953;28;20014;-70
2023/06/14 09:43:19;;;;;;;5.00;1.88;;;22.90;86.80;;;;;;5018984;28;20076;-70
2023/06/14 09:45:48;;;;;;;3.55;1.70;;;22.90;85.60;;;;;;5018813;28;20065;-70
2023/06/14 09:48:17;;;;;;;6.13;1.80;;;22.90;86.30;;;;;;5018198;28;20030;-70
2023/06/14 09:50:46;;;;;;;2.95;1.83;;;23.00;86.30;;;;;;5019783;28;20018;-70
2023/06/14 09:53:12;;;;;;;4.53;1.80;;;23.00;85.00;;;;;;5019846;28;20022;-70
2023/06/14 09:55:40;;;;;;;6.20;1.90;;;22.70;85.30;;;;;;5018653;28;20037;-70
2023/06/14 09:58:08;;;;;;;3.03;1.85;;;22.70;86.20;;;;;;5019310;28;20025;-70
2023/06/14 10:00:35;;;;;;;4.20;2.10;;;22.50;86.30;;;;;;5018811;28;20026;-70
2023/06/14 10:03:06;;;;;;;2.30;1.92;;;22.80;86.70;;;;;;5019650;28;20022;-70
2023/06/14 10:05:35;;;;;;;2.72;1.70;;;23.00;87.90;;;;;;5018491;28;20026;-70
2023/06/14 10:08:07;;;;;;;1.88;1.52;;;23.20;85.40;;;;;;5019280;28;20056;-70
2023/06/14 10:10:33;;;;;;;6.15;1.75;;;23.20;85.30;;;;;;5018825;28;20095;-70
2023/06/14 10:13:00;;;;;;;2.42;1.80;;;23.00;87.10;;;;;;5019003;28;20053;-70
2023/06/14 10:15:37;;;;;;;2.72;2.17;;;22.90;85.60;;;;;;5018164;28;20033;-70
2023/06/14 10:18:14;;;;;;;3.75;1.88;;;22.90;85.50;;;;;;5018169;28;20044;-70
2023/06/14 10:20:49;;;;;;;3.63;1.55;;;22.80;86.20;;;;;;5018389;28;20033;-70
2023/06/14 10:23:22;;;;;;;3.35;1.42;;;23.30;85.90;;;;;;5016445;28;20026;-70
2023/06/14 10:25:50;;;;;;;2.40;1.45;;;23.40;85.00;;;;;;5018958;28;20028;-70
2023/06/14 10:28:18;;;;;;;2.05;1.48;;;23.70;84.30;;;;;;5017604;28;20041;-70
2023/06/14 10:31:03;;;;;;;3.10;1.50;;;23.70;84.70;;;;;;5019067;28;20022;-70
2023/06/14 10:33:29;;;;;;;2.65;2.13;;;23.90;83.20;;;;;;5018089;28;20026;-69
2023/06/14 10:36:32;;;;;;;6.75;1.58;;;24.10;85.00;;;;;;5018618;28;20033;-69
2023/06/14 10:39:08;;;;;;;4.00;1.85;;;24.30;81.60;;;;;;4942277;29;20028;-69
2023/06/14 10:41:38;;;;;;;2.17;1.55;;;24.30;80.20;;;;;;4958859;29;20034;-69
2023/06/14 10:44:13;;;;;;;4.88;1.40;;;23.80;81.40;;;;;;4958675;29;20136;-69
2023/06/14 10:46:39;;;;;;;3.67;1.67;;;23.90;84.20;;;;;;4942552;29;20126;-69
2023/06/14 10:49:06;;;;;;;2.67;1.50;;;24.20;80.00;;;;;;4942180;29;20067;-70
2023/06/14 10:51:46;;;;;;;2.53;1.55;;;24.10;79.20;;;;;;4942542;29;20034;-69
2023/06/14 10:54:15;;;;;;;3.22;1.83;;;24.00;79.80;;;;;;4942771;29;20050;-69
2023/06/14 10:56:48;;;;;;;1.77;1.50;;;23.80;80.10;;;;;;4942550;29;20031;-69
2023/06/14 10:59:15;;;;;;;2.67;1.85;;;24.10;80.60;;;;;;4941007;29;20063;-69
2023/06/14 11:02:16;;;;;;;1.98;1.55;;;24.30;80.30;;;;;;4942336;29;20094;-69
2023/06/14 11:04:52;;;;;;;4.90;1.75;;;24.80;79.00;;;;;;4958516;29;20051;-69
2023/06/14 11:07:55;;;;;;;2.25;1.67;;;24.50;78.80;;;;;;4942321;29;20050;-68
2023/06/14 11:10:37;;;;;;;2.83;1.83;;;24.30;79.10;;;;;;4941743;29;20045;-67
2023/06/14 11:13:03;;;;;;;2.28;1.65;;;23.80;78.90;;;;;;4991982;28;20034;-67
2023/06/14 11:15:33;;;;;;;4.35;1.90;;;23.70;80.30;;;;;;5017479;28;20030;-67
2023/06/14 11:18:02;;;;;;;2.38;2.00;;;23.50;81.40;;;;;;5017847;28;20030;-67
2023/06/14 11:20:31;;;;;;;5.30;2.05;;;23.40;83.20;;;;;;5017195;28;20022;-67
2023/06/14 11:22:57;;;;;;;4.20;1.67;;;23.40;83.40;;;;;;5016855;28;20049;-67
2023/06/14 11:25:23;;;;;;;2.28;2.08;;;23.90;82.20;;;;;;5018008;28;20108;-67
2023/06/14 11:27:52;;;;;;;7.97;2.10;;;24.80;81.90;;;;;;5017789;28;20068;-67
2023/06/14 11:30:18;;;;;;;3.85;1.77;;;24.90;79.70;;;;;;5016551;28;20025;-67
2023/06/14 11:32:51;;;;;;;2.17;1.65;;;24.90;76.90;;;;;;5017631;28;20032;-67
2023/06/14 11:35:18;;;;;;;6.45;2.53;;;24.70;77.00;;;;;;5017576;28;20026;-67
2023/06/14 11:37:47;;;;;;;2.72;2.00;;;24.50;79.20;;;;;;5015037;28;20021;-67
2023/06/14 11:40:13;;;;;;;2.00;1.80;;;24.60;80.40;;;;;;5016837;28;20025;-67
2023/06/14 11:42:40;;;;;;;3.38;1.77;;;24.30;78.80;;;;;;5016879;28;20056;-67
2023/06/14 11:45:10;;;;;;;2.42;1.88;;;24.20;80.30;;;;;;5016798;28;20123;-67
2023/06/14 11:47:37;;;;;;;3.00;2.08;;;24.90;78.80;;;;;;5016862;28;20073;-67
2023/06/14 11:50:05;;;;;;;2.47;2.03;;;24.90;78.50;;;;;;5015836;28;20033;-67
2023/06/14 11:52:31;;;;;;;3.38;2.00;;;24.40;79.60;;;;;;5016693;28;20026;-67
2023/06/14 11:54:58;;;;;;;2.80;1.80;;;24.70;79.20;;;;;;5016477;28;20052;-67
2023/06/14 11:57:24;;;;;;;2.45;2.00;;;24.90;79.50;;;;;;5017304;28;20096;-67
2023/06/14 11:59:49;;;;;;;6.82;2.22;;;24.60;79.60;;;;;;5016938;28;20057;-67
2023/06/14 12:02:16;;;;;;;5.05;2.33;;;24.80;80.40;;;;;;5017107;28;20029;-67
2023/06/14 12:04:42;;;;;;;3.33;2.20;;;24.80;79.60;;;;;;5016705;28;20025;-67
2023/06/14 12:07:14;;;;;;;2.80;2.15;;;25.20;81.10;;;;;;5016606;28;20022;-67
2023/06/14 12:09:43;;;;;;;1.90;1.60;;;25.50;77.90;;;;;;5016226;28;20029;-67
2023/06/14 12:12:10;;;;;;;6.13;2.10;;;25.80;79.70;;;;;;5016446;28;20033;-67
2023/06/14 12:14:36;;;;;;;5.88;1.90;;;25.90;77.00;;;;;;5016173;28;20116;-67
2023/06/14 12:17:09;;;;;;;7.50;2.40;;;25.20;77.40;;;;;;5016199;28;20077;-67
2023/06/14 12:19:43;;;;;;;3.25;2.20;;;24.70;77.40;;;;;;5017127;28;20022;-67
2023/06/14 12:22:10;;;;;;;3.40;2.10;;;24.10;79.40;;;;;;5016120;28;20029;-67
2023/06/14 12:24:35;;;;;;;2.10;1.90;;;24.70;79.80;;;;;;5016081;28;20026;-67
2023/06/14 12:27:04;;;;;;;2.80;1.92;;;24.80;78.50;;;;;;5015951;28;20022;-67
2023/06/14 12:29:31;;;;;;;2.50;1.80;;;24.90;79.60;;;;;;5016098;28;20146;-67
2023/06/14 12:31:57;;;;;;;3.67;2.00;;;25.30;78.80;;;;;;5017113;28;20028;-67
2023/06/14 12:34:27;;;;;;;3.38;1.98;;;25.30;77.70;;;;;;5017027;28;20101;-67
2023/06/14 12:36:53;;;;;;;2.08;1.85;;;25.20;78.40;;;;;;5015917;28;20052;-67
2023/06/14 12:39:19;;;;;;;7.10;2.05;;;24.80;78.00;;;;;;5016100;28;20114;-67
2023/06/14 12:41:45;;;;;;;1.90;1.60;;;25.00;77.00;;;;;;5016912;28;20022;-67
2023/06/14 12:44:11;;;;;;;3.35;2.00;;;25.00;75.00;;;;;;5015955;28;20057;-67
2023/06/14 12:46:39;;;;;;;2.15;1.95;;;25.20;74.30;;;;;;5017052;28;20026;-67